SKVV

Details ICAO SKVV (VVC)
Name VANGUARDIA
Region Colombia
Timezone America/Bogota (UTC-5.0)
Plans Departing 14
Arriving 18
Stats Elevation 1,394 ft / 425 m (AMSL)
Location 4.167875° -73.613760°
Runways 1
Magnetic Variation 7.553° W
Sunrise 2017-12-12 10:53:12 UTC / 2017-12-12 05:53:12 Local
Sunset 2017-12-12 22:46:13 UTC / 2017-12-12 17:46:13 Local
Advertisement - Login to hide

Runways

ID Width Length Bearing (true) Bearing (mag) Surface Threshold Offset Overrun Length
04 98 ft / 30 m 5,632 ft / 1,717 m 39.04° 46.59° Asphalt 0 ft / 0 m 0 ft / 0 m
22 98 ft / 30 m 5,632 ft / 1,717 m 219.04° 226.59° Asphalt 0 ft / 0 m 0 ft / 0 m

Map

Weather


0- 5 10 15 20 25 30 35+ Temperature / ° C

Clouds and Precipitation
Forecast for 2017-12-13 06:00 UTC. Updated an hour ago

Ground ~20,000 ft ~40,000 ft Winds

METAR

SKVV 130400Z 00000KT 9999 SCT020 BKN090 24/22 A2991

TAF

Not found

Frequencies

Tower 118.70 MHz TWR
Approach 119.30 MHz VILLAVICENCIO APP
Warning: Do not use this data for real-world aviation or navigation. No guarantee of current accuracy is given.